Time;durP1;ratioP1;P1;durP2;ratioP2;P2;SDS_P1;SDS_P2;PMS_P1;PMS_P2;Temp;Humidity;BMP_temperature;BMP_pressure;BME280_temperature;BME280_humidity;BME280_pressure;Samples;Min_cycle;Max_cycle;Signal;HPM_P1;HPM_P2
2021/11/09 00:26:51;;;;;;;5.93;2.57;;;;;;;;;;5278388;22;3426215;-68
2021/11/09 00:29:18;;;;;;;8.60;1.20;;;;;;;;;;5093195;28;20024;-67
2021/11/09 00:31:45;;;;;;;7.03;1.30;;;;;;;;;;5093238;28;20028;-67
2021/11/09 00:34:12;;;;;;;2.00;0.83;;;;;;;;;;5092444;28;20027;-68
2021/11/09 00:36:38;;;;;;;14.37;1.80;;;;;;;;;;5092584;28;20020;-68
2021/11/09 00:39:07;;;;;;;3.70;1.27;;;;;;;;;;5088329;28;20536;-68
2021/11/09 00:41:33;;;;;;;8.50;1.67;;;;;;;;;;5087286;28;20085;-67
2021/11/09 00:44:00;;;;;;;7.47;1.33;;;;;;;;;;5086750;28;20747;-67
2021/11/09 00:46:27;;;;;;;3.60;1.03;;;;;;;;;;5086735;28;20040;-68
2021/11/09 00:48:54;;;;;;;3.83;1.13;;;;;;;;;;5090667;28;20458;-67
2021/11/09 00:51:21;;;;;;;8.27;1.70;;;;;;;;;;5092029;28;20028;-67
2021/11/09 00:53:48;;;;;;;3.93;0.80;;;;;;;;;;5092204;28;20028;-67
2021/11/09 00:56:15;;;;;;;5.63;1.40;;;;;;;;;;5091719;28;20028;-65
2021/11/09 00:58:42;;;;;;;3.63;1.67;;;;;;;;;;5092083;28;20517;-64
2021/11/09 01:01:09;;;;;;;2.80;1.30;;;;;;;;;;5087654;28;20032;-65
2021/11/09 01:03:36;;;;;;;2.50;1.00;;;;;;;;;;5087054;28;20032;-67
2021/11/09 01:06:03;;;;;;;4.53;1.57;;;;;;;;;;5085898;28;20043;-67
2021/11/09 01:08:30;;;;;;;2.37;1.07;;;;;;;;;;5086914;28;20028;-67
2021/11/09 01:10:57;;;;;;;1.93;0.60;;;;;;;;;;5089708;28;20074;-67
2021/11/09 01:13:25;;;;;;;3.37;0.70;;;;;;;;;;5091887;28;20520;-67
2021/11/09 01:15:53;;;;;;;4.37;0.53;;;;;;;;;;5091764;28;20101;-67
2021/11/09 01:18:24;;;;;;;1.83;0.90;;;;;;;;;;5091640;28;20016;-68
2021/11/09 01:20:51;;;;;;;5.53;1.50;;;;;;;;;;5091614;28;20020;-66
2021/11/09 01:23:19;;;;;;;5.60;1.27;;;;;;;;;;5087939;28;20145;-68
2021/11/09 01:25:46;;;;;;;6.83;1.27;;;;;;;;;;5086073;28;20046;-67
2021/11/09 01:28:12;;;;;;;3.40;0.80;;;;;;;;;;5086401;28;20028;-66
2021/11/09 01:30:41;;;;;;;0.63;0.40;;;;;;;;;;5086841;28;20036;-68
2021/11/09 01:33:08;;;;;;;1.93;0.83;;;;;;;;;;5089581;28;20381;-67
2021/11/09 01:35:37;;;;;;;0.93;0.60;;;;;;;;;;5091177;28;20032;-68
2021/11/09 01:38:04;;;;;;;10.47;0.70;;;;;;;;;;5092285;28;20048;-67
2021/11/09 01:40:32;;;;;;;6.43;2.40;;;;;;;;;;5091944;28;20489;-67
2021/11/09 01:43:00;;;;;;;5.60;1.30;;;;;;;;;;5091889;28;20099;-67
2021/11/09 01:45:27;;;;;;;3.17;0.80;;;;;;;;;;5088412;28;20027;-67
2021/11/09 01:47:54;;;;;;;4.70;0.80;;;;;;;;;;5086218;28;20032;-67
2021/11/09 01:50:24;;;;;;;1.07;0.60;;;;;;;;;;5086332;28;20427;-67
2021/11/09 01:52:51;;;;;;;4.10;0.97;;;;;;;;;;5085829;28;20016;-67
2021/11/09 01:55:20;;;;;;;1.90;0.80;;;;;;;;;;5089065;28;20058;-68
2021/11/09 01:57:47;;;;;;;3.53;0.70;;;;;;;;;;5091640;28;20027;-67
2021/11/09 02:00:18;;;;;;;1.67;0.80;;;;;;;;;;5084316;28;20035;-67
2021/11/09 02:02:46;;;;;;;1.57;0.60;;;;;;;;;;5090527;28;20389;-66
2021/11/09 02:05:14;;;;;;;1.60;0.53;;;;;;;;;;5090779;28;20025;-66
2021/11/09 02:07:48;;;;;;;1.20;0.47;;;;;;;;;;5088230;28;20064;-66
2021/11/09 02:10:16;;;;;;;1.33;0.50;;;;;;;;;;5086138;28;20027;-66
2021/11/09 02:12:43;;;;;;;2.00;0.40;;;;;;;;;;5085927;28;20565;-66
2021/11/09 02:15:10;;;;;;;0.93;0.47;;;;;;;;;;5086109;28;20096;-67
2021/11/09 02:17:38;;;;;;;3.03;0.60;;;;;;;;;;5088659;28;20020;-66
2021/11/09 02:20:07;;;;;;;0.90;0.33;;;;;;;;;;5091513;28;20031;-66
2021/11/09 02:22:34;;;;;;;1.80;0.67;;;;;;;;;;5091403;28;20039;-67
2021/11/09 02:25:05;;;;;;;1.17;0.60;;;;;;;;;;5091591;28;20024;-67
2021/11/09 02:27:32;;;;;;;1.13;0.40;;;;;;;;;;5091362;28;20145;-66
2021/11/09 02:29:59;;;;;;;0.70;0.40;;;;;;;;;;5087066;28;20169;-66
2021/11/09 02:32:26;;;;;;;3.13;0.50;;;;;;;;;;5086602;28;20189;-66
2021/11/09 02:34:53;;;;;;;1.43;0.43;;;;;;;;;;5088340;28;20047;-67
2021/11/09 02:37:20;;;;;;;1.30;0.60;;;;;;;;;;5090032;28;20023;-66
2021/11/09 02:39:46;;;;;;;0.60;0.40;;;;;;;;;;5092137;28;20548;-67
2021/11/09 02:42:16;;;;;;;0.60;0.40;;;;;;;;;;5094976;28;20059;-64
2021/11/09 02:44:54;;;;;;;3.77;0.80;;;;;;;;;;5094430;28;20031;-64
2021/11/09 02:47:24;;;;;;;1.97;1.17;;;;;;;;;;5095183;28;20024;-64
2021/11/09 02:49:58;;;;;;;1.50;0.60;;;;;;;;;;5094836;28;20074;-64
2021/11/09 02:52:26;;;;;;;0.95;0.40;;;;;;;;;;5091390;28;20028;-64
2021/11/09 02:55:00;;;;;;;1.43;0.70;;;;;;;;;;5088710;28;20463;-64
2021/11/09 03:00:29;;;;;;;2.20;0.23;;;;;;;;;;5088940;28;20059;-64
2021/11/09 03:03:03;;;;;;;3.43;1.37;;;;;;;;;;5093687;28;20094;-64
2021/11/09 03:05:45;;;;;;;0.83;0.50;;;;;;;;;;5094842;28;20117;-63
2021/11/09 03:10:50;;;;;;;3.77;1.20;;;;;;;;;;5094747;28;20036;-63
2021/11/09 03:13:16;;;;;;;4.53;1.70;;;;;;;;;;5092324;28;20062;-65
2021/11/09 03:15:43;;;;;;;6.97;1.70;;;;;;;;;;5089261;28;20529;-63
2021/11/09 03:18:17;;;;;;;4.53;1.80;;;;;;;;;;5088971;28;20027;-64
2021/11/09 03:40:25;;;;;;;1.67;0.70;;;;;;;;;;5088512;28;20043;-63
2021/11/09 03:45:39;;;;;;;2.88;1.38;;;;;;;;;;5069052;28;20101;-64
2021/11/09 03:48:14;;;;;;;2.00;0.70;;;;;;;;;;5087722;28;20043;-63
2021/11/09 03:50:46;;;;;;;2.47;0.63;;;;;;;;;;5093889;28;20032;-63
2021/11/09 03:53:18;;;;;;;2.23;0.83;;;;;;;;;;5093180;28;20514;-63
2021/11/09 03:58:33;;;;;;;2.30;0.90;;;;;;;;;;5084193;28;20494;-66
2021/11/09 04:01:15;;;;;;;4.40;0.90;;;;;;;;;;5088263;28;20456;-65
2021/11/09 04:09:01;;;;;;;5.53;1.73;;;;;;;;;;5090522;28;20106;-66
2021/11/09 04:16:49;;;;;;;3.83;1.70;;;;;;;;;;5093175;28;20382;-66
2021/11/09 04:27:51;;;;;;;3.13;1.43;;;;;;;;;;5085974;28;20478;-65
2021/11/09 04:47:52;;;;;;;1.77;1.03;;;;;;;;;;5005030;28;20041;-65
2021/11/09 04:52:27;;;;;;;3.20;1.30;;;;;;;;;;5087604;28;20024;-65
2021/11/09 05:08:19;;;;;;;4.68;1.23;;;;;;;;;;5074908;28;20047;-63
2021/11/09 05:11:09;;;;;;;6.30;1.10;;;;;;;;;;5080918;28;19912;-65
2021/11/09 05:13:36;;;;;;;2.70;1.00;;;;;;;;;;5086626;28;20458;-65
2021/11/09 05:16:03;;;;;;;2.27;1.10;;;;;;;;;;5090489;28;20012;-66
2021/11/09 05:18:30;;;;;;;3.00;1.37;;;;;;;;;;5090301;28;20042;-67
2021/11/09 05:20:57;;;;;;;3.57;1.20;;;;;;;;;;5091599;28;20016;-65
2021/11/09 05:23:23;;;;;;;2.70;1.10;;;;;;;;;;5091676;28;20100;-64
2021/11/09 05:25:52;;;;;;;2.73;1.10;;;;;;;;;;5092173;28;20055;-65
2021/11/09 05:28:19;;;;;;;2.13;1.20;;;;;;;;;;5087375;28;20551;-66
2021/11/09 05:30:50;;;;;;;2.23;0.90;;;;;;;;;;5085759;28;20130;-65
2021/11/09 05:33:17;;;;;;;1.83;0.87;;;;;;;;;;5086820;28;20117;-65
2021/11/09 05:35:45;;;;;;;4.97;0.90;;;;;;;;;;5086743;28;20032;-65
2021/11/09 05:38:14;;;;;;;1.40;1.03;;;;;;;;;;5090557;28;20424;-66
2021/11/09 05:40:41;;;;;;;1.23;0.70;;;;;;;;;;5092222;28;20089;-65
2021/11/09 05:43:09;;;;;;;4.27;0.90;;;;;;;;;;5091742;28;20463;-65
2021/11/09 05:45:36;;;;;;;2.57;0.83;;;;;;;;;;5092163;28;20110;-65
2021/11/09 05:48:03;;;;;;;2.83;0.70;;;;;;;;;;5091802;28;20089;-65
2021/11/09 05:50:31;;;;;;;0.93;0.70;;;;;;;;;;5087784;28;20016;-65
2021/11/09 05:52:57;;;;;;;3.23;0.97;;;;;;;;;;5086269;28;20085;-66
2021/11/09 05:55:24;;;;;;;2.13;1.10;;;;;;;;;;5086661;28;20032;-65
2021/11/09 05:57:51;;;;;;;2.10;0.80;;;;;;;;;;5086162;28;20054;-65
2021/11/09 06:00:18;;;;;;;1.43;0.80;;;;;;;;;;5090116;28;20016;-65
2021/11/09 06:02:45;;;;;;;2.03;1.00;;;;;;;;;;5091858;28;20492;-65
2021/11/09 06:05:12;;;;;;;2.03;0.90;;;;;;;;;;5092079;28;20099;-65
2021/11/09 06:07:38;;;;;;;2.03;0.70;;;;;;;;;;5091400;28;20028;-65
2021/11/09 06:10:06;;;;;;;2.03;0.90;;;;;;;;;;5094750;28;20024;-65
2021/11/09 06:12:33;;;;;;;2.30;0.80;;;;;;;;;;5092182;28;20032;-65
2021/11/09 06:15:00;;;;;;;2.33;0.80;;;;;;;;;;5090466;28;20032;-65
2021/11/09 06:17:27;;;;;;;3.30;0.97;;;;;;;;;;5090714;28;20756;-65
2021/11/09 06:19:54;;;;;;;2.17;0.87;;;;;;;;;;5089926;28;20020;-65
2021/11/09 06:22:22;;;;;;;1.37;0.90;;;;;;;;;;5093062;28;20426;-65
2021/11/09 06:24:49;;;;;;;1.60;0.70;;;;;;;;;;5095161;28;20028;-65
2021/11/09 06:27:18;;;;;;;1.83;1.00;;;;;;;;;;5095047;28;20495;-65
2021/11/09 06:29:46;;;;;;;1.50;0.90;;;;;;;;;;5095532;28;20024;-65
2021/11/09 06:32:14;;;;;;;3.63;0.83;;;;;;;;;;5095351;28;20028;-62
2021/11/09 06:34:41;;;;;;;1.70;1.00;;;;;;;;;;5092069;28;20039;-63
2021/11/09 06:37:09;;;;;;;1.70;0.77;;;;;;;;;;5090434;28;20024;-62
2021/11/09 06:39:36;;;;;;;1.23;0.70;;;;;;;;;;5089889;28;20020;-63
2021/11/09 06:42:04;;;;;;;2.40;0.80;;;;;;;;;;5089189;28;20405;-63
2021/11/09 06:44:31;;;;;;;5.10;0.70;;;;;;;;;;5092335;28;20051;-62
2021/11/09 06:46:58;;;;;;;4.60;0.90;;;;;;;;;;5094997;28;20119;-62
2021/11/09 06:49:25;;;;;;;2.93;0.93;;;;;;;;;;5095078;28;20052;-62
2021/11/09 06:51:51;;;;;;;2.67;1.10;;;;;;;;;;5095050;28;20611;-63
2021/11/09 06:54:18;;;;;;;2.50;1.00;;;;;;;;;;5094728;28;20372;-62
2021/11/09 06:56:45;;;;;;;3.13;1.00;;;;;;;;;;5092313;28;20942;-62
2021/11/09 06:59:13;;;;;;;1.43;0.93;;;;;;;;;;5088910;28;20362;-63
2021/11/09 07:01:40;;;;;;;1.50;0.70;;;;;;;;;;5089763;28;20346;-62
2021/11/09 07:04:06;;;;;;;1.50;0.80;;;;;;;;;;5089056;28;20265;-62
2021/11/09 07:06:34;;;;;;;1.07;0.77;;;;;;;;;;5091709;28;20289;-62
2021/11/09 07:09:01;;;;;;;1.87;0.90;;;;;;;;;;5094762;28;20314;-62
2021/11/09 07:11:28;;;;;;;1.43;0.67;;;;;;;;;;5094627;28;20260;-63
2021/11/09 07:13:55;;;;;;;2.43;1.10;;;;;;;;;;5093374;28;20616;-63
2021/11/09 07:16:26;;;;;;;4.07;0.90;;;;;;;;;;5094292;28;20348;-62
2021/11/09 07:19:12;;;;;;;1.43;0.70;;;;;;;;;;5091998;28;20272;-62
2021/11/09 07:21:38;;;;;;;1.13;0.80;;;;;;;;;;5089506;28;20265;-62
2021/11/09 07:24:06;;;;;;;2.03;0.60;;;;;;;;;;5088872;28;20032;-62
2021/11/09 07:26:33;;;;;;;2.67;0.70;;;;;;;;;;5088806;28;20692;-63
2021/11/09 07:29:00;;;;;;;1.13;0.60;;;;;;;;;;5091116;28;20345;-62
2021/11/09 07:31:28;;;;;;;1.97;0.90;;;;;;;;;;5094328;28;20344;-62
2021/11/09 07:33:55;;;;;;;2.30;0.80;;;;;;;;;;5093313;28;22145;-62
2021/11/09 07:36:22;;;;;;;1.23;0.70;;;;;;;;;;5094012;28;20359;-62
2021/11/09 07:38:49;;;;;;;1.40;0.70;;;;;;;;;;5094087;28;20264;-62
2021/11/09 07:41:15;;;;;;;1.17;0.80;;;;;;;;;;5091500;28;20284;-63
2021/11/09 07:43:42;;;;;;;4.13;0.93;;;;;;;;;;5088693;28;20265;-62
2021/11/09 07:46:09;;;;;;;2.47;0.60;;;;;;;;;;5088350;28;20718;-62
2021/11/09 07:48:36;;;;;;;1.40;0.63;;;;;;;;;;5088978;28;20735;-62
2021/11/09 07:51:03;;;;;;;1.43;0.80;;;;;;;;;;5088168;28;20780;-62
2021/11/09 07:53:34;;;;;;;1.13;0.60;;;;;;;;;;5093940;28;20805;-62
2021/11/09 07:56:19;;;;;;;1.77;0.80;;;;;;;;;;5093751;28;20268;-62
2021/11/09 08:01:28;;;;;;;2.63;0.77;;;;;;;;;;5093910;28;20032;-62
2021/11/09 08:06:27;;;;;;;1.53;0.70;;;;;;;;;;5087908;28;20303;-65
2021/11/09 08:08:59;;;;;;;1.97;0.80;;;;;;;;;;5088454;28;20268;-65
2021/11/09 08:11:27;;;;;;;1.60;0.90;;;;;;;;;;5088275;28;20291;-65
2021/11/09 08:13:54;;;;;;;3.77;0.93;;;;;;;;;;5090939;28;20323;-65
2021/11/09 08:16:21;;;;;;;8.80;1.60;;;;;;;;;;5093337;28;20309;-64
2021/11/09 08:18:48;;;;;;;3.33;0.60;;;;;;;;;;5093373;28;20240;-65
2021/11/09 08:21:15;;;;;;;2.00;0.97;;;;;;;;;;5093051;28;20398;-65
2021/11/09 08:23:47;;;;;;;1.90;1.07;;;;;;;;;;5093104;28;20284;-65
2021/11/09 08:26:14;;;;;;;1.53;0.90;;;;;;;;;;5089347;28;20295;-65
2021/11/09 08:28:42;;;;;;;1.33;0.80;;;;;;;;;;5087497;28;20273;-64
2021/11/09 08:31:11;;;;;;;3.87;0.70;;;;;;;;;;5087318;28;20245;-64
2021/11/09 08:33:38;;;;;;;1.40;0.60;;;;;;;;;;5088156;28;20337;-65
2021/11/09 08:36:09;;;;;;;4.03;0.73;;;;;;;;;;5090191;28;20355;-65
2021/11/09 08:38:36;;;;;;;1.87;0.80;;;;;;;;;;5092962;28;20260;-65
2021/11/09 08:41:03;;;;;;;2.20;1.00;;;;;;;;;;5092920;28;20255;-64
2021/11/09 08:43:34;;;;;;;3.17;0.60;;;;;;;;;;5092727;28;20309;-64
2021/11/09 08:46:06;;;;;;;1.33;0.87;;;;;;;;;;5092498;28;20265;-65
2021/11/09 08:48:39;;;;;;;2.57;0.67;;;;;;;;;;5089340;28;20269;-65
2021/11/09 08:51:11;;;;;;;2.20;0.97;;;;;;;;;;5087106;28;20330;-65
2021/11/09 08:53:43;;;;;;;1.47;0.80;;;;;;;;;;5087717;28;20264;-62
2021/11/09 09:04:19;;;;;;;1.33;0.73;;;;;;;;;;5092721;28;20417;-62
2021/11/09 09:06:51;;;;;;;2.70;0.80;;;;;;;;;;5092183;28;20044;-62
2021/11/09 09:09:18;;;;;;;0.87;0.47;;;;;;;;;;5092067;28;20713;-62
2021/11/09 09:11:45;;;;;;;2.63;0.83;;;;;;;;;;5087190;28;20340;-62
2021/11/09 09:14:12;;;;;;;1.37;0.80;;;;;;;;;;5086979;28;20790;-62
2021/11/09 09:16:45;;;;;;;3.87;0.90;;;;;;;;;;5086962;28;20291;-62
2021/11/09 09:19:12;;;;;;;1.33;0.80;;;;;;;;;;5086669;28;20268;-64
2021/11/09 09:21:48;;;;;;;1.70;0.70;;;;;;;;;;5091932;28;20261;-62
2021/11/09 09:24:28;;;;;;;1.87;0.60;;;;;;;;;;5092321;28;20731;-62
2021/11/09 09:27:19;;;;;;;2.33;0.83;;;;;;;;;;5090543;28;20379;-62
2021/11/09 09:32:45;;;;;;;;;;;;;;;;;;5090126;28;20369;-62
2021/11/09 09:57:08;;;;;;;1.83;0.50;;;;;;;;;;5090510;28;20028;-62
2021/11/09 09:59:38;;;;;;;1.00;0.60;;;;;;;;;;5090619;28;20308;-62
2021/11/09 10:02:22;;;;;;;0.90;0.53;;;;;;;;;;5090717;28;20271;-62
2021/11/09 10:05:00;;;;;;;1.10;0.50;;;;;;;;;;5092607;28;20784;-63
2021/11/09 10:07:30;;;;;;;0.90;0.50;;;;;;;;;;5096018;28;20288;-62
2021/11/09 10:09:57;;;;;;;0.63;0.47;;;;;;;;;;5095485;28;20314;-62
2021/11/09 10:12:33;;;;;;;1.10;0.60;;;;;;;;;;5095501;28;20264;-62
2021/11/09 10:15:02;;;;;;;1.43;0.83;;;;;;;;;;5095717;28;20299;-62
2021/11/09 10:17:30;;;;;;;2.67;0.80;;;;;;;;;;5092243;28;20754;-63
2021/11/09 10:19:58;;;;;;;1.40;0.70;;;;;;;;;;5083222;28;20267;-62
2021/11/09 10:22:34;;;;;;;0.67;0.43;;;;;;;;;;5090672;28;20302;-62
2021/11/09 10:25:03;;;;;;;2.03;0.80;;;;;;;;;;5090143;28;20268;-62
2021/11/09 10:27:31;;;;;;;1.10;0.70;;;;;;;;;;5092300;28;20627;-62
2021/11/09 10:29:59;;;;;;;1.67;0.60;;;;;;;;;;5094673;28;20280;-62
2021/11/09 10:32:28;;;;;;;5.20;0.90;;;;;;;;;;5095703;28;20260;-62
2021/11/09 10:34:57;;;;;;;1.53;0.70;;;;;;;;;;5095278;28;20272;-62
2021/11/09 10:37:26;;;;;;;0.93;0.63;;;;;;;;;;5095274;28;20325;-62
2021/11/09 10:39:57;;;;;;;1.07;0.40;;;;;;;;;;5091538;28;20747;-62
2021/11/09 10:42:25;;;;;;;1.53;0.63;;;;;;;;;;5089534;28;20746;-63
2021/11/09 10:45:03;;;;;;;1.10;0.53;;;;;;;;;;5089991;28;20252;-62
2021/11/09 10:47:31;;;;;;;0.63;0.63;;;;;;;;;;5090139;28;20284;-62
2021/11/09 10:49:59;;;;;;;2.10;0.60;;;;;;;;;;5092704;28;20261;-62
2021/11/09 10:52:29;;;;;;;2.27;0.60;;;;;;;;;;5093832;28;20257;-62
2021/11/09 10:55:01;;;;;;;4.03;0.60;;;;;;;;;;5092114;28;20318;-62
2021/11/09 10:57:39;;;;;;;2.83;1.63;;;;;;;;;;5094670;28;20825;-62
2021/11/09 11:05:22;;;;;;;1.38;0.90;;;;;;;;;;5089575;28;20805;-62
2021/11/09 11:07:54;;;;;;;1.47;0.70;;;;;;;;;;5088094;28;20126;-62
2021/11/09 11:10:32;;;;;;;1.33;0.73;;;;;;;;;;5080407;28;20272;-62
2021/11/09 11:13:18;;;;;;;1.53;0.60;;;;;;;;;;5094548;28;20253;-62
2021/11/09 11:16:01;;;;;;;3.77;0.70;;;;;;;;;;5094527;28;20702;-62
2021/11/09 11:18:29;;;;;;;1.67;0.70;;;;;;;;;;5094052;28;20264;-62
2021/11/09 11:20:56;;;;;;;1.73;0.90;;;;;;;;;;5093054;28;20359;-62
2021/11/09 11:23:24;;;;;;;1.47;0.83;;;;;;;;;;5093062;28;20321;-62
2021/11/09 11:25:51;;;;;;;1.50;0.80;;;;;;;;;;5089149;28;20287;-62
2021/11/09 11:28:18;;;;;;;1.20;0.63;;;;;;;;;;5088838;28;20733;-62
2021/11/09 11:30:45;;;;;;;0.97;0.70;;;;;;;;;;5089011;28;20793;-62
2021/11/09 11:33:12;;;;;;;1.70;0.80;;;;;;;;;;5089212;28;20264;-62
2021/11/09 11:35:38;;;;;;;1.33;0.87;;;;;;;;;;5093472;28;20273;-62
2021/11/09 11:38:05;;;;;;;0.73;0.50;;;;;;;;;;5094313;28;20600;-62
2021/11/09 11:40:33;;;;;;;1.93;0.53;;;;;;;;;;5093485;28;20815;-62
2021/11/09 11:43:00;;;;;;;1.27;0.50;;;;;;;;;;5094292;28;20249;-62
2021/11/09 11:45:28;;;;;;;1.10;0.60;;;;;;;;;;5093229;28;20264;-62
2021/11/09 11:48:07;;;;;;;0.87;0.60;;;;;;;;;;5088640;28;20685;-62
2021/11/09 11:50:41;;;;;;;1.40;0.80;;;;;;;;;;5088630;28;20269;-62
2021/11/09 11:53:08;;;;;;;1.33;0.90;;;;;;;;;;5088134;28;20257;-62
2021/11/09 11:55:36;;;;;;;1.67;0.90;;;;;;;;;;5089399;28;20313;-62
2021/11/09 11:58:10;;;;;;;1.60;0.80;;;;;;;;;;5093593;28;20301;-62
2021/11/09 12:00:39;;;;;;;1.13;0.68;;;;;;;;;;5093515;28;20261;-62
2021/11/09 12:03:27;;;;;;;3.83;1.20;;;;;;;;;;5093453;28;20051;-62
2021/11/09 12:05:58;;;;;;;2.00;1.07;;;;;;;;;;5085606;28;20285;-62
2021/11/09 12:08:37;;;;;;;1.17;0.53;;;;;;;;;;5090739;28;20630;-62
2021/11/09 12:14:18;;;;;;;2.77;0.80;;;;;;;;;;5066107;28;20299;-62
2021/11/09 12:16:56;;;;;;;4.97;0.93;;;;;;;;;;5087964;28;20271;-62
2021/11/09 12:19:35;;;;;;;1.40;0.93;;;;;;;;;;5091734;28;20389;-62
2021/11/09 12:22:09;;;;;;;0.87;0.70;;;;;;;;;;5093277;28;20292;-62
2021/11/09 12:24:54;;;;;;;1.97;1.00;;;;;;;;;;5093113;28;20743;-62
2021/11/09 12:27:29;;;;;;;4.90;1.10;;;;;;;;;;5092800;28;20297;-62
2021/11/09 12:29:57;;;;;;;2.00;1.03;;;;;;;;;;5091567;28;20310;-62
2021/11/09 12:32:25;;;;;;;2.73;1.50;;;;;;;;;;5087902;28;20599;-62
2021/11/09 12:34:58;;;;;;;1.87;1.00;;;;;;;;;;5087388;28;20252;-62
2021/11/09 12:37:25;;;;;;;5.07;1.60;;;;;;;;;;5087426;28;20290;-62
2021/11/09 12:39:52;;;;;;;11.47;4.23;;;;;;;;;;5087203;28;20277;-62
2021/11/09 12:42:19;;;;;;;41.60;13.50;;;;;;;;;;5093136;28;20265;-62
2021/11/09 12:44:46;;;;;;;36.67;13.13;;;;;;;;;;5091215;28;20810;-62
2021/11/09 12:47:13;;;;;;;10.20;4.23;;;;;;;;;;5092483;28;20288;-62
2021/11/09 12:49:40;;;;;;;5.40;2.17;;;;;;;;;;5091372;28;20359;-62
2021/11/09 12:52:07;;;;;;;5.23;1.80;;;;;;;;;;5092139;28;20340;-62
2021/11/09 12:54:34;;;;;;;4.17;1.73;;;;;;;;;;5087040;28;20279;-62
2021/11/09 12:57:03;;;;;;;3.43;1.60;;;;;;;;;;5087158;28;20269;-62
2021/11/09 12:59:40;;;;;;;3.00;1.17;;;;;;;;;;5087247;28;20273;-62
2021/11/09 13:02:23;;;;;;;3.47;1.50;;;;;;;;;;5086889;28;20272;-62
2021/11/09 13:04:56;;;;;;;2.50;1.30;;;;;;;;;;5091806;28;20777;-62
2021/11/09 13:10:13;;;;;;;2.60;1.33;;;;;;;;;;5092273;28;20264;-62
2021/11/09 13:12:40;;;;;;;2.20;0.80;;;;;;;;;;5092266;28;20257;-62
2021/11/09 13:15:09;;;;;;;2.57;1.23;;;;;;;;;;5089269;28;20321;-62
2021/11/09 13:17:40;;;;;;;1.63;1.10;;;;;;;;;;5086755;28;20272;-61
2021/11/09 13:20:18;;;;;;;1.57;0.80;;;;;;;;;;5086254;28;20750;-62
2021/11/09 13:22:55;;;;;;;2.63;1.07;;;;;;;;;;5086982;28;20264;-62
2021/11/09 13:25:40;;;;;;;3.17;1.10;;;;;;;;;;5089015;28;20249;-62
2021/11/09 13:28:32;;;;;;;2.13;1.00;;;;;;;;;;5090911;28;20801;-62
2021/11/09 13:31:02;;;;;;;2.03;1.10;;;;;;;;;;5091506;28;20086;-62
2021/11/09 13:33:30;;;;;;;2.60;1.20;;;;;;;;;;5091046;28;20279;-62
2021/11/09 13:35:58;;;;;;;4.37;1.30;;;;;;;;;;5091530;28;20271;-62
2021/11/09 13:38:25;;;;;;;5.40;1.20;;;;;;;;;;5087370;28;20347;-62
2021/11/09 13:40:54;;;;;;;7.93;1.57;;;;;;;;;;5087004;28;20821;-62
2021/11/09 13:43:24;;;;;;;6.33;1.83;;;;;;;;;;5086755;28;20267;-62
2021/11/09 13:46:08;;;;;;;3.63;1.60;;;;;;;;;;5086547;28;20261;-62
2021/11/09 13:48:37;;;;;;;4.27;2.00;;;;;;;;;;5091513;28;20288;-62
2021/11/09 13:51:06;;;;;;;4.90;1.90;;;;;;;;;;5091787;28;20272;-62
2021/11/09 13:53:35;;;;;;;5.57;1.80;;;;;;;;;;5091864;28;20277;-62
2021/11/09 13:56:02;;;;;;;3.43;1.57;;;;;;;;;;5091621;28;20615;-62
2021/11/09 13:58:29;;;;;;;5.47;2.07;;;;;;;;;;5091816;28;20272;-62
2021/11/09 14:01:01;;;;;;;10.93;2.10;;;;;;;;;;5086395;28;20279;-62
2021/11/09 14:16:39;;;;;;;4.43;1.50;;;;;;;;;;5092334;28;20150;-62
2021/11/09 14:19:11;;;;;;;5.87;2.03;;;;;;;;;;5091533;28;20256;-62
2021/11/09 14:21:38;;;;;;;5.60;1.67;;;;;;;;;;5089977;28;20024;-62
2021/11/09 14:24:16;;;;;;;4.67;1.90;;;;;;;;;;5086247;28;20431;-62
2021/11/09 14:26:43;;;;;;;5.20;1.90;;;;;;;;;;5086190;28;20024;-62
2021/11/09 14:29:37;;;;;;;3.87;1.70;;;;;;;;;;5086098;28;20073;-62
2021/11/09 14:32:18;;;;;;;10.87;2.83;;;;;;;;;;5091087;28;20036;-62
2021/11/09 14:34:57;;;;;;;6.83;2.40;;;;;;;;;;5095391;28;20035;-62
2021/11/09 14:37:30;;;;;;;4.93;2.37;;;;;;;;;;5094823;28;20080;-62
2021/11/09 14:40:11;;;;;;;7.83;2.03;;;;;;;;;;5095037;28;20059;-62
2021/11/09 14:45:24;;;;;;;6.40;2.60;;;;;;;;;;5090146;28;20059;-62
2021/11/09 14:47:56;;;;;;;5.70;2.47;;;;;;;;;;5090116;28;20050;-62
2021/11/09 14:50:36;;;;;;;9.30;2.53;;;;;;;;;;5090154;28;20470;-62
2021/11/09 14:53:06;;;;;;;6.10;3.10;;;;;;;;;;5089757;28;20031;-62
2021/11/09 14:55:42;;;;;;;5.33;2.53;;;;;;;;;;5094692;28;20035;-61
2021/11/09 14:58:35;;;;;;;11.03;3.00;;;;;;;;;;5095014;28;20028;-60
2021/11/09 15:01:28;;;;;;;11.70;4.77;;;;;;;;;;5092635;28;20050;-62
2021/11/09 15:04:15;;;;;;;10.73;5.80;;;;;;;;;;5094857;28;20024;-61
2021/11/09 15:12:56;;;;;;;15.95;8.18;;;;;;;;;;5086449;28;20201;-61
2021/11/09 15:30:12;;;;;;;4.63;1.73;;;;;;;;;;5082707;28;20059;-61
2021/11/09 15:32:53;;;;;;;2.50;1.17;;;;;;;;;;5088266;28;20381;-61
2021/11/09 15:38:21;;;;;;;3.07;0.60;;;;;;;;;;5089709;28;20059;-61
2021/11/09 15:40:59;;;;;;;2.10;0.80;;;;;;;;;;5093129;28;20036;-61
2021/11/09 15:43:33;;;;;;;2.73;0.63;;;;;;;;;;5094391;28;20427;-61
2021/11/09 15:46:07;;;;;;;0.90;0.47;;;;;;;;;;5093679;28;20028;-61
2021/11/09 15:48:34;;;;;;;1.02;0.52;;;;;;;;;;5093656;28;20032;-62
2021/11/09 15:51:01;;;;;;;1.97;0.80;;;;;;;;;;5090725;28;20069;-62
2021/11/09 15:53:29;;;;;;;0.50;0.20;;;;;;;;;;5088675;28;20458;-62
2021/11/09 15:55:56;;;;;;;0.67;0.40;;;;;;;;;;5088699;28;20032;-62
2021/11/09 15:58:23;;;;;;;3.13;0.60;;;;;;;;;;5088935;28;20020;-61
2021/11/09 16:00:50;;;;;;;1.27;0.50;;;;;;;;;;5090228;28;20069;-59
2021/11/09 16:03:17;;;;;;;0.70;0.40;;;;;;;;;;5093871;28;20024;-60
2021/11/09 16:05:47;;;;;;;4.10;0.43;;;;;;;;;;5092967;28;20086;-59
2021/11/09 16:08:15;;;;;;;1.80;0.47;;;;;;;;;;5093621;28;20048;-59
2021/11/09 16:10:41;;;;;;;0.90;0.63;;;;;;;;;;5092915;28;20494;-60
2021/11/09 16:13:08;;;;;;;2.30;0.40;;;;;;;;;;5091069;28;20028;-61
2021/11/09 16:15:35;;;;;;;0.93;0.50;;;;;;;;;;5087351;28;20032;-60
2021/11/09 16:18:02;;;;;;;1.00;0.43;;;;;;;;;;5088246;28;20035;-61
2021/11/09 16:20:29;;;;;;;1.40;0.40;;;;;;;;;;5087664;28;20028;-61
2021/11/09 16:22:58;;;;;;;2.10;0.60;;;;;;;;;;5089451;28;20332;-60
2021/11/09 16:25:25;;;;;;;0.70;0.43;;;;;;;;;;5092940;28;20115;-60
2021/11/09 16:27:52;;;;;;;0.97;0.47;;;;;;;;;;5092940;28;20036;-60
2021/11/09 16:30:20;;;;;;;0.50;0.40;;;;;;;;;;5093262;28;20028;-60
2021/11/09 16:32:50;;;;;;;2.30;1.20;;;;;;;;;;5092933;28;20032;-60
2021/11/09 16:37:49;;;;;;;0.90;0.53;;;;;;;;;;5080706;28;20032;-60
2021/11/09 16:40:19;;;;;;;2.10;0.50;;;;;;;;;;5087179;28;20137;-60
2021/11/09 16:42:54;;;;;;;0.70;0.30;;;;;;;;;;5087723;28;20024;-60
2021/11/09 16:45:25;;;;;;;0.10;0.10;;;;;;;;;;5089368;28;20032;-61
2021/11/09 16:47:52;;;;;;;3.67;0.60;;;;;;;;;;5091913;28;20024;-61
2021/11/09 16:53:08;;;;;;;3.03;0.80;;;;;;;;;;5092289;28;20092;-61
2021/11/09 16:56:08;;;;;;;1.33;0.53;;;;;;;;;;5092353;28;20409;-62
2021/11/09 16:59:07;;;;;;;0.87;0.33;;;;;;;;;;5088142;28;20106;-60
2021/11/09 17:13:48;;;;;;;0.57;0.43;;;;;;;;;;5091919;28;20165;-61
2021/11/09 18:13:22;;;;;;;1.43;0.90;;;;;;;;;;5078531;28;20691;-67
2021/11/09 18:16:12;;;;;;;1.20;0.60;;;;;;;;;;5095239;28;20031;-67
2021/11/09 18:21:30;;;;;;;1.70;0.80;;;;;;;;;;5094965;28;20046;-66
2021/11/09 18:23:59;;;;;;;2.37;0.90;;;;;;;;;;5095341;28;20127;-67
2021/11/09 18:26:31;;;;;;;1.27;0.50;;;;;;;;;;5091108;28;20028;-67
2021/11/09 18:29:01;;;;;;;1.10;0.70;;;;;;;;;;5085782;28;20020;-66
2021/11/09 18:31:35;;;;;;;1.70;0.70;;;;;;;;;;5087236;28;20038;-67
2021/11/09 18:34:03;;;;;;;4.50;0.70;;;;;;;;;;5089325;28;20169;-65
2021/11/09 18:36:34;;;;;;;0.90;0.80;;;;;;;;;;5090995;28;20028;-65
2021/11/09 18:39:05;;;;;;;1.63;0.80;;;;;;;;;;5094476;28;20032;-65
2021/11/09 18:41:32;;;;;;;1.47;0.90;;;;;;;;;;5094207;28;20596;-67
2021/11/09 18:43:58;;;;;;;3.30;0.97;;;;;;;;;;5093575;28;20024;-68
2021/11/09 18:46:26;;;;;;;3.10;0.80;;;;;;;;;;5094436;28;20024;-68
2021/11/09 18:48:59;;;;;;;3.80;1.10;;;;;;;;;;5092740;28;20019;-68
2021/11/09 18:51:27;;;;;;;2.00;1.00;;;;;;;;;;5089607;28;20058;-65
2021/11/09 18:53:55;;;;;;;1.37;0.93;;;;;;;;;;5089128;28;20020;-66
2021/11/09 18:56:22;;;;;;;1.67;0.90;;;;;;;;;;5089416;28;20051;-63
2021/11/09 18:58:50;;;;;;;2.87;1.13;;;;;;;;;;5090290;28;20032;-67
2021/11/09 19:01:18;;;;;;;5.90;1.40;;;;;;;;;;5093805;28;20102;-66
2021/11/09 19:03:44;;;;;;;2.03;1.10;;;;;;;;;;5093231;28;20359;-66
2021/11/09 19:06:11;;;;;;;2.83;1.20;;;;;;;;;;5094139;28;20091;-66
2021/11/09 19:08:38;;;;;;;4.30;1.00;;;;;;;;;;5093917;28;20036;-68
2021/11/09 19:11:05;;;;;;;1.77;1.10;;;;;;;;;;5092381;28;20016;-66
2021/11/09 19:13:33;;;;;;;11.47;1.43;;;;;;;;;;5088612;28;20422;-66
2021/11/09 19:16:02;;;;;;;3.83;1.20;;;;;;;;;;5088680;28;20089;-66
2021/11/09 19:18:29;;;;;;;2.47;1.33;;;;;;;;;;5088932;28;20417;-65
2021/11/09 19:20:56;;;;;;;2.53;1.10;;;;;;;;;;5089731;28;20024;-66
2021/11/09 19:23:24;;;;;;;7.40;1.40;;;;;;;;;;5093753;28;20024;-66
2021/11/09 19:25:53;;;;;;;3.00;1.10;;;;;;;;;;5093897;28;20031;-66
2021/11/09 19:28:20;;;;;;;2.97;1.40;;;;;;;;;;5094142;28;20046;-65
2021/11/09 19:30:47;;;;;;;4.33;1.20;;;;;;;;;;5094260;28;20020;-66
2021/11/09 19:33:14;;;;;;;4.20;1.10;;;;;;;;;;5093068;28;20031;-66
2021/11/09 19:35:41;;;;;;;1.83;0.90;;;;;;;;;;5088461;28;20047;-66